Time;durP1;ratioP1;P1;durP2;ratioP2;P2;SDS_P1;SDS_P2;PMS_P1;PMS_P2;Temp;Humidity;BMP_temperature;BMP_pressure;BME280_temperature;BME280_humidity;BME280_pressure;Samples;Min_cycle;Max_cycle;Signal;HPM_P1;HPM_P2
2022/01/14 00:01:21;;;;;;;62.13;39.55;;;0.90;99.90;;;;;;4953428;29;20229;-72
2022/01/14 00:04:07;;;;;;;58.05;35.78;;;0.90;99.90;;;;;;4952111;28;20228;-72
2022/01/14 00:06:54;;;;;;;58.13;37.58;;;0.80;99.90;;;;;;4952708;29;20288;-72
2022/01/14 00:09:39;;;;;;;63.88;38.35;;;1.00;99.90;;;;;;4956550;28;20208;-72
2022/01/14 00:12:28;;;;;;;61.70;38.67;;;1.00;99.90;;;;;;4972648;28;20200;-72
2022/01/14 00:15:24;;;;;;;60.33;35.55;;;1.10;99.90;;;;;;4951184;28;20212;-73
2022/01/14 00:18:10;;;;;;;57.65;35.60;;;1.20;99.90;;;;;;4959942;28;20204;-72
2022/01/14 00:20:56;;;;;;;51.55;34.50;;;1.40;99.90;;;;;;4952439;28;20220;-73
2022/01/14 00:23:44;;;;;;;58.85;34.88;;;1.40;99.90;;;;;;4952709;29;20248;-72
2022/01/14 00:32:46;;;;;;;55.15;34.08;;;1.20;99.90;;;;;;4949831;28;20240;-72
2022/01/14 00:35:32;;;;;;;61.55;34.65;;;1.00;99.90;;;;;;4943986;29;20223;-72
2022/01/14 00:38:18;;;;;;;58.38;35.08;;;0.90;99.90;;;;;;4949487;29;20208;-72
2022/01/14 00:41:05;;;;;;;57.80;34.75;;;0.80;99.90;;;;;;4954348;29;20713;-72
2022/01/14 00:43:58;;;;;;;61.08;34.45;;;0.80;99.90;;;;;;4954603;28;20735;-72
2022/01/14 00:46:46;;;;;;;60.55;36.00;;;0.80;99.90;;;;;;4953854;29;20212;-72
2022/01/14 00:49:33;;;;;;;62.72;38.80;;;0.80;99.90;;;;;;4951107;29;20208;-72
2022/01/14 00:52:18;;;;;;;54.50;34.88;;;0.80;99.90;;;;;;4952557;29;20339;-72
2022/01/14 00:55:05;;;;;;;55.17;35.00;;;0.60;99.90;;;;;;4952956;29;20212;-72
2022/01/14 01:00:55;;;;;;;58.85;36.35;;;0.70;99.90;;;;;;4949582;28;20220;-72
2022/01/14 01:03:41;;;;;;;63.10;34.20;;;0.80;99.90;;;;;;4948507;28;20851;-73
2022/01/14 01:06:26;;;;;;;54.63;34.15;;;0.90;99.90;;;;;;4950247;29;20203;-72
2022/01/14 01:09:14;;;;;;;58.20;34.50;;;1.00;99.90;;;;;;4945681;29;20217;-72
2022/01/14 01:12:09;;;;;;;56.78;34.00;;;0.90;99.90;;;;;;4953478;28;20561;-72
2022/01/14 01:15:05;;;;;;;58.72;36.97;;;0.90;99.90;;;;;;4950851;29;20283;-72
2022/01/14 01:17:51;;;;;;;51.90;33.15;;;0.80;99.90;;;;;;4949600;29;20775;-72
2022/01/14 01:20:36;;;;;;;53.47;33.78;;;0.80;99.90;;;;;;4953149;29;20240;-72
2022/01/14 01:23:22;;;;;;;55.60;34.08;;;0.70;99.90;;;;;;4948729;28;20231;-72
2022/01/14 01:26:13;;;;;;;52.00;34.63;;;0.70;99.90;;;;;;4953392;29;20207;-72
2022/01/14 01:29:16;;;;;;;50.15;32.10;;;0.70;99.90;;;;;;4949400;29;20689;-72
2022/01/14 01:32:04;;;;;;;47.90;31.38;;;0.90;99.90;;;;;;4953659;29;20208;-72
2022/01/14 01:34:50;;;;;;;51.58;31.60;;;0.90;99.90;;;;;;4948020;29;20585;-72
2022/01/14 01:37:36;;;;;;;60.95;33.75;;;0.90;99.90;;;;;;4947056;28;20565;-72
2022/01/14 01:40:23;;;;;;;48.47;32.55;;;0.80;99.90;;;;;;4952133;29;20208;-72
2022/01/14 01:43:10;;;;;;;53.08;31.25;;;0.80;99.90;;;;;;4952292;28;20373;-72
2022/01/14 01:45:56;;;;;;;52.60;33.92;;;0.60;99.90;;;;;;4949261;28;20204;-72
2022/01/14 01:48:43;;;;;;;53.75;33.63;;;0.50;99.90;;;;;;4947675;29;20209;-72
2022/01/14 01:51:29;;;;;;;60.60;33.88;;;0.60;99.90;;;;;;4951660;28;20203;-72
2022/01/14 01:54:15;;;;;;;60.40;34.47;;;0.60;99.90;;;;;;4951665;28;20228;-72
2022/01/14 01:57:00;;;;;;;56.20;33.10;;;0.60;99.90;;;;;;4948510;29;20714;-73
2022/01/14 01:59:46;;;;;;;77.35;37.08;;;0.50;99.90;;;;;;4952866;29;20200;-72
2022/01/14 02:02:32;;;;;;;62.42;36.53;;;0.60;99.90;;;;;;4945389;29;20709;-73
2022/01/14 02:05:19;;;;;;;136.23;44.20;;;0.60;99.90;;;;;;4952437;29;20701;-73
2022/01/14 02:08:05;;;;;;;92.18;44.03;;;0.50;99.90;;;;;;4948371;29;20275;-71
2022/01/14 02:10:50;;;;;;;88.47;41.75;;;0.50;99.90;;;;;;4953668;28;20305;-72
2022/01/14 02:13:36;;;;;;;80.57;41.35;;;0.60;99.90;;;;;;4954923;28;20284;-72
2022/01/14 02:16:33;;;;;;;136.02;41.88;;;0.70;99.90;;;;;;4944990;29;20208;-72
2022/01/14 02:19:25;;;;;;;81.78;42.78;;;0.60;99.90;;;;;;4955323;29;20282;-73
2022/01/14 02:22:11;;;;;;;86.07;40.42;;;0.50;99.90;;;;;;4955207;29;20603;-73
2022/01/14 02:25:04;;;;;;;74.07;40.30;;;0.50;99.90;;;;;;4954777;29;20621;-73
2022/01/14 02:27:50;;;;;;;71.32;41.08;;;0.50;99.90;;;;;;4943551;29;20339;-72
2022/01/14 02:30:38;;;;;;;78.60;42.78;;;0.50;99.90;;;;;;4955422;29;20260;-73
2022/01/14 02:33:24;;;;;;;84.03;41.72;;;0.40;99.90;;;;;;4953676;29;20579;-73
2022/01/14 02:36:11;;;;;;;77.63;41.13;;;0.40;99.90;;;;;;4952138;29;20224;-73
2022/01/14 02:38:59;;;;;;;68.78;39.00;;;0.50;99.90;;;;;;4954531;29;20248;-73
2022/01/14 02:41:47;;;;;;;68.53;38.65;;;0.60;99.90;;;;;;4954624;29;20361;-73
2022/01/14 02:44:33;;;;;;;73.90;40.20;;;0.60;99.90;;;;;;4955657;29;20249;-72
2022/01/14 02:47:18;;;;;;;77.40;42.03;;;0.40;99.90;;;;;;4953516;29;20212;-73
2022/01/14 02:50:06;;;;;;;82.43;46.58;;;0.20;99.90;;;;;;4955793;29;20292;-73
2022/01/14 02:52:58;;;;;;;80.90;44.95;;;0.10;99.90;;;;;;4954811;29;20224;-72
2022/01/14 02:55:44;;;;;;;75.80;45.33;;;0.20;99.90;;;;;;4952023;29;20201;-72
2022/01/14 02:58:32;;;;;;;64.97;40.83;;;0.20;99.90;;;;;;4955204;29;20205;-73
2022/01/14 03:01:22;;;;;;;64.45;41.13;;;0.30;99.90;;;;;;4954690;29;20594;-72
2022/01/14 03:04:09;;;;;;;71.85;41.35;;;0.20;99.90;;;;;;4955072;29;20252;-72
2022/01/14 03:06:54;;;;;;;61.15;36.30;;;0.10;99.90;;;;;;4946963;29;20208;-73
2022/01/14 03:09:41;;;;;;;58.00;34.85;;;0.20;99.90;;;;;;4952741;28;20224;-72
2022/01/14 03:12:27;;;;;;;55.50;35.05;;;0.20;99.90;;;;;;4951442;28;20204;-73
2022/01/14 03:15:15;;;;;;;58.75;36.15;;;0.20;99.90;;;;;;4951536;29;20212;-73
2022/01/14 03:18:00;;;;;;;55.95;34.75;;;0.30;99.90;;;;;;4951749;28;20215;-73
2022/01/14 03:20:50;;;;;;;53.33;33.95;;;0.50;99.90;;;;;;4955162;29;20299;-73
2022/01/14 03:23:42;;;;;;;56.60;35.30;;;0.60;99.90;;;;;;4953207;28;20232;-72
2022/01/14 03:26:28;;;;;;;59.97;34.67;;;0.60;99.90;;;;;;4943994;29;20208;-72
2022/01/14 03:29:15;;;;;;;52.15;34.22;;;0.60;99.90;;;;;;4952953;29;20687;-72
2022/01/14 03:32:01;;;;;;;49.70;33.28;;;0.50;99.90;;;;;;4953978;29;20279;-72
2022/01/14 03:34:47;;;;;;;53.03;34.65;;;0.60;99.90;;;;;;4948431;29;20220;-73
2022/01/14 03:37:32;;;;;;;52.60;31.30;;;0.50;99.90;;;;;;4947812;29;20256;-72
2022/01/14 03:40:18;;;;;;;61.53;32.55;;;0.40;99.90;;;;;;4948490;28;20452;-73
2022/01/14 03:43:04;;;;;;;55.67;33.95;;;0.40;99.90;;;;;;4951979;29;20602;-73
2022/01/14 03:45:51;;;;;;;61.28;34.40;;;0.40;99.90;;;;;;4942342;28;20212;-72
2022/01/14 03:48:37;;;;;;;61.13;36.65;;;0.30;99.90;;;;;;4949443;29;20208;-72
2022/01/14 03:51:24;;;;;;;67.65;36.60;;;0.50;99.90;;;;;;4954102;29;20562;-72
2022/01/14 03:54:10;;;;;;;69.03;38.13;;;0.40;99.90;;;;;;4953672;29;20232;-72
2022/01/14 03:56:55;;;;;;;75.57;39.30;;;0.40;99.90;;;;;;4953003;29;20212;-73
2022/01/14 03:59:41;;;;;;;69.20;39.17;;;0.30;99.90;;;;;;4950373;29;20336;-72
2022/01/14 04:02:28;;;;;;;77.68;38.20;;;0.40;99.90;;;;;;4953761;29;20284;-72
2022/01/14 04:05:14;;;;;;;98.93;42.40;;;0.50;99.90;;;;;;4949598;29;20204;-72
2022/01/14 04:08:00;;;;;;;94.50;47.35;;;0.70;99.90;;;;;;4952366;28;20204;-73
2022/01/14 04:10:49;;;;;;;73.68;43.20;;;0.70;99.90;;;;;;4950874;29;20321;-72
2022/01/14 04:13:42;;;;;;;117.55;41.47;;;0.70;99.90;;;;;;4949503;28;20216;-72
2022/01/14 04:16:28;;;;;;;70.82;41.13;;;0.80;99.90;;;;;;4951294;29;20567;-72
2022/01/14 04:19:15;;;;;;;94.85;43.05;;;0.90;99.90;;;;;;4953079;29;20212;-72
2022/01/14 04:22:01;;;;;;;66.55;39.47;;;1.00;99.90;;;;;;4952548;29;20593;-72
2022/01/14 04:24:46;;;;;;;60.65;37.28;;;1.00;99.90;;;;;;4948442;29;20204;-72
2022/01/14 04:27:32;;;;;;;88.40;37.55;;;0.90;99.90;;;;;;4948272;29;20215;-72
2022/01/14 04:30:18;;;;;;;84.57;38.38;;;0.90;99.90;;;;;;4953693;29;20204;-72
2022/01/14 04:33:05;;;;;;;92.80;39.42;;;0.70;99.90;;;;;;4953847;28;20224;-72
2022/01/14 04:35:54;;;;;;;77.40;37.65;;;0.60;99.90;;;;;;4947457;28;20224;-72
2022/01/14 04:38:40;;;;;;;118.57;41.65;;;0.40;99.90;;;;;;4947377;29;20205;-73
2022/01/14 04:41:25;;;;;;;105.53;38.33;;;0.30;99.90;;;;;;4947437;29;20216;-72
2022/01/14 04:44:11;;;;;;;146.00;37.75;;;0.30;99.90;;;;;;4951751;29;20713;-72
2022/01/14 04:47:15;;;;;;;93.05;37.53;;;0.10;99.90;;;;;;4937502;29;20205;-72
2022/01/14 04:50:01;;;;;;;62.53;37.13;;;0.00;99.90;;;;;;4952237;29;20287;-72
2022/01/14 04:52:49;;;;;;;57.92;36.60;;;-0.20;99.90;;;;;;4952747;29;20807;-72
2022/01/14 04:55:35;;;;;;;53.08;34.63;;;-0.10;99.90;;;;;;4949861;29;20204;-72
2022/01/14 04:58:21;;;;;;;60.53;32.30;;;0.10;99.90;;;;;;4952987;29;20694;-72
2022/01/14 05:01:06;;;;;;;50.58;32.92;;;0.30;99.90;;;;;;4952846;29;20213;-72
2022/01/14 05:03:52;;;;;;;60.08;35.35;;;0.40;99.90;;;;;;4949136;28;21077;-72
2022/01/14 05:06:39;;;;;;;69.22;33.72;;;0.40;99.90;;;;;;4949454;28;20204;-72
2022/01/14 05:09:28;;;;;;;55.42;34.80;;;0.50;99.90;;;;;;4950398;29;20622;-72
2022/01/14 05:12:14;;;;;;;54.53;32.53;;;0.60;99.90;;;;;;4952516;29;20193;-72
2022/01/14 05:15:00;;;;;;;54.13;32.75;;;0.60;99.90;;;;;;4949540;29;20204;-72
2022/01/14 05:17:46;;;;;;;64.20;35.45;;;0.70;99.90;;;;;;4952377;29;20586;-72
2022/01/14 05:20:32;;;;;;;56.28;34.88;;;0.70;99.90;;;;;;4946184;29;20216;-72
2022/01/14 05:23:17;;;;;;;57.45;33.80;;;0.70;99.90;;;;;;4944636;28;20236;-72
2022/01/14 05:26:04;;;;;;;55.03;33.58;;;0.70;99.90;;;;;;4945451;29;20208;-72
2022/01/14 05:28:50;;;;;;;53.92;34.33;;;0.80;99.90;;;;;;4951056;29;20208;-72
2022/01/14 05:31:47;;;;;;;56.42;35.75;;;0.80;99.90;;;;;;4952541;29;20586;-72
2022/01/14 05:34:33;;;;;;;61.40;34.15;;;0.70;99.90;;;;;;4943096;29;20232;-72
2022/01/14 05:37:19;;;;;;;50.28;32.35;;;0.60;99.90;;;;;;4950403;29;20301;-72
2022/01/14 05:40:06;;;;;;;52.67;32.40;;;0.60;99.90;;;;;;4953254;29;20340;-72
2022/01/14 05:42:54;;;;;;;58.60;34.53;;;0.60;99.90;;;;;;4949007;29;20255;-72
2022/01/14 05:45:39;;;;;;;51.35;30.80;;;0.60;99.90;;;;;;4941359;28;20259;-72
2022/01/14 05:48:25;;;;;;;46.08;31.63;;;0.50;99.90;;;;;;4950727;29;20204;-72
2022/01/14 05:51:11;;;;;;;53.45;31.38;;;0.60;99.90;;;;;;4952029;29;20216;-72
2022/01/14 05:53:56;;;;;;;48.80;30.85;;;0.60;99.90;;;;;;4943634;28;20320;-72
2022/01/14 05:56:42;;;;;;;49.72;30.42;;;0.70;99.90;;;;;;4951508;29;20328;-72
2022/01/14 05:59:30;;;;;;;61.85;32.47;;;0.60;99.90;;;;;;4952055;29;20220;-72
2022/01/14 06:02:15;;;;;;;49.08;30.42;;;0.60;99.90;;;;;;4951529;29;20216;-72
2022/01/14 06:05:02;;;;;;;60.95;31.63;;;0.60;99.90;;;;;;4949176;29;20481;-72
2022/01/14 06:07:47;;;;;;;49.47;31.58;;;0.60;99.90;;;;;;4948549;29;20224;-71
2022/01/14 06:10:33;;;;;;;59.30;32.83;;;0.50;99.90;;;;;;4947630;29;20419;-71
2022/01/14 06:13:19;;;;;;;57.45;31.73;;;0.50;99.90;;;;;;4949304;28;20349;-71
2022/01/14 06:16:06;;;;;;;117.32;32.47;;;0.20;99.90;;;;;;4949206;29;20212;-71
2022/01/14 06:18:52;;;;;;;75.65;34.08;;;0.00;99.90;;;;;;4950089;29;20316;-71
2022/01/14 06:21:38;;;;;;;94.35;32.58;;;-0.20;99.90;;;;;;4950837;28;20207;-71
2022/01/14 06:24:23;;;;;;;82.25;32.88;;;-0.20;99.90;;;;;;4949196;28;20721;-71
2022/01/14 06:27:09;;;;;;;52.97;32.38;;;-0.30;99.90;;;;;;4951191;28;20208;-71
2022/01/14 06:29:55;;;;;;;55.92;34.13;;;-0.10;99.90;;;;;;4952112;29;20738;-71
2022/01/14 06:32:42;;;;;;;67.78;33.70;;;0.00;99.90;;;;;;4950559;28;20204;-73
2022/01/14 06:35:28;;;;;;;65.15;32.92;;;-0.10;99.90;;;;;;4946552;29;20205;-71
2022/01/14 06:38:13;;;;;;;54.20;32.80;;;-0.20;99.90;;;;;;4951407;29;20215;-71
2022/01/14 06:40:59;;;;;;;57.42;31.60;;;-0.10;99.90;;;;;;4952345;29;20284;-71
2022/01/14 06:43:45;;;;;;;52.03;30.85;;;-0.30;99.90;;;;;;4941602;29;20769;-71
2022/01/14 06:46:30;;;;;;;55.03;33.58;;;-0.20;99.90;;;;;;4946011;29;20212;-71
2022/01/14 06:49:18;;;;;;;62.70;36.10;;;-0.20;99.90;;;;;;4944083;29;20287;-71
2022/01/14 06:52:04;;;;;;;51.95;31.95;;;-0.30;99.90;;;;;;4949984;29;20207;-71
2022/01/14 06:54:50;;;;;;;49.78;30.25;;;-0.30;99.90;;;;;;4951088;29;20325;-71
2022/01/14 06:57:35;;;;;;;51.65;31.27;;;-0.30;99.90;;;;;;4946924;28;20224;-71
2022/01/14 07:00:22;;;;;;;53.72;31.27;;;-0.30;99.90;;;;;;4948873;29;20208;-72
2022/01/14 07:03:08;;;;;;;45.30;31.25;;;-0.40;99.90;;;;;;4951123;28;20605;-71
2022/01/14 07:05:55;;;;;;;52.28;30.25;;;-0.40;99.90;;;;;;4951678;29;20350;-71
2022/01/14 07:08:41;;;;;;;50.38;31.27;;;-0.30;99.90;;;;;;4945263;29;20352;-71
2022/01/14 07:11:30;;;;;;;42.85;29.17;;;-0.40;99.90;;;;;;4955837;29;20679;-71
2022/01/14 07:14:16;;;;;;;48.85;31.17;;;-0.40;99.90;;;;;;4952609;29;20219;-71
2022/01/14 07:17:02;;;;;;;43.70;30.92;;;-0.40;99.90;;;;;;4955250;29;20208;-71
2022/01/14 07:19:50;;;;;;;49.30;31.13;;;-0.20;99.90;;;;;;4955682;28;20288;-71
2022/01/14 07:22:37;;;;;;;46.92;30.23;;;-0.10;99.90;;;;;;4947215;28;20737;-71
2022/01/14 07:25:23;;;;;;;43.60;29.75;;;0.10;99.90;;;;;;4951051;29;20204;-70
2022/01/14 07:28:09;;;;;;;44.80;29.13;;;0.00;99.90;;;;;;4955383;29;20316;-71
2022/01/14 07:30:55;;;;;;;41.13;28.00;;;0.00;99.90;;;;;;4955061;29;20201;-71
2022/01/14 07:33:40;;;;;;;40.65;28.15;;;-0.10;99.90;;;;;;4948816;29;20228;-71
2022/01/14 07:36:26;;;;;;;38.65;26.33;;;-0.10;99.90;;;;;;4955006;29;20273;-71
2022/01/14 07:39:13;;;;;;;43.58;28.45;;;0.10;99.90;;;;;;4955090;29;20211;-71
2022/01/14 07:41:58;;;;;;;43.80;28.08;;;0.10;99.90;;;;;;4951446;28;20227;-71
2022/01/14 07:44:44;;;;;;;44.88;29.15;;;0.10;99.90;;;;;;4951334;29;20232;-71
2022/01/14 07:47:29;;;;;;;50.85;31.90;;;0.10;99.90;;;;;;4953342;29;20702;-71
2022/01/14 07:50:15;;;;;;;43.15;28.15;;;0.10;99.90;;;;;;4953816;29;20208;-71
2022/01/14 07:53:00;;;;;;;40.70;27.80;;;0.20;99.90;;;;;;4951311;28;20588;-71
2022/01/14 07:55:47;;;;;;;40.30;28.73;;;0.30;99.90;;;;;;4955223;29;20602;-71
2022/01/14 07:58:33;;;;;;;42.80;28.42;;;0.40;99.90;;;;;;4948071;29;20328;-71
2022/01/14 08:01:19;;;;;;;43.00;29.55;;;0.40;99.90;;;;;;4947840;28;20336;-71
2022/01/14 08:04:05;;;;;;;43.38;28.80;;;0.40;99.90;;;;;;4953586;29;20240;-71
2022/01/14 08:06:54;;;;;;;49.72;31.75;;;0.50;99.90;;;;;;4955637;29;20200;-71
2022/01/14 08:09:41;;;;;;;51.78;31.35;;;0.60;99.90;;;;;;4955524;28;20212;-71
2022/01/14 08:12:28;;;;;;;50.33;32.60;;;0.60;99.90;;;;;;4949612;28;20209;-70
2022/01/14 08:15:14;;;;;;;58.72;35.05;;;0.50;99.90;;;;;;4936303;29;20201;-71
2022/01/14 08:18:01;;;;;;;63.05;34.20;;;0.60;99.90;;;;;;4953394;29;20677;-71
2022/01/14 08:20:47;;;;;;;56.58;35.28;;;0.60;99.90;;;;;;4951184;29;20205;-71
2022/01/14 08:23:32;;;;;;;53.05;33.25;;;0.40;99.90;;;;;;4950527;28;20355;-71
2022/01/14 08:26:18;;;;;;;60.67;34.95;;;0.30;99.90;;;;;;4953450;29;20207;-70
2022/01/14 08:29:05;;;;;;;61.28;35.75;;;0.40;99.90;;;;;;4952673;29;20387;-71
2022/01/14 08:31:51;;;;;;;64.18;35.17;;;0.40;99.90;;;;;;4951112;29;20589;-71
2022/01/14 08:34:37;;;;;;;55.40;33.35;;;0.40;99.90;;;;;;4951710;29;20610;-71
2022/01/14 08:37:22;;;;;;;57.95;36.33;;;0.30;99.90;;;;;;4946833;29;20255;-71
2022/01/14 08:40:11;;;;;;;64.20;35.63;;;0.50;99.90;;;;;;4954621;29;20255;-71
2022/01/14 08:42:57;;;;;;;58.70;35.95;;;0.60;99.90;;;;;;4941074;29;20245;-71
2022/01/14 08:45:44;;;;;;;57.10;36.45;;;0.60;99.90;;;;;;4952849;29;20204;-71
2022/01/14 08:48:31;;;;;;;65.72;37.78;;;0.70;99.90;;;;;;4936512;29;20205;-71
2022/01/14 08:51:17;;;;;;;60.17;36.50;;;0.70;99.90;;;;;;4951806;28;20689;-71
2022/01/14 08:54:02;;;;;;;60.33;37.95;;;0.70;99.90;;;;;;4951682;28;20224;-70
2022/01/14 08:56:48;;;;;;;61.30;37.67;;;0.70;99.90;;;;;;4952245;29;20328;-71
2022/01/14 08:59:34;;;;;;;66.25;43.10;;;0.70;99.90;;;;;;4952692;28;20200;-71
2022/01/14 09:02:21;;;;;;;77.07;48.83;;;0.70;99.90;;;;;;4950137;29;20567;-71
2022/01/14 09:05:09;;;;;;;68.20;45.75;;;0.80;99.90;;;;;;4953685;29;20204;-71
2022/01/14 09:07:55;;;;;;;63.28;38.80;;;0.80;99.90;;;;;;4953020;29;20203;-71
2022/01/14 09:10:41;;;;;;;58.15;36.42;;;0.90;99.90;;;;;;4954326;29;20204;-71
2022/01/14 09:13:27;;;;;;;53.28;34.78;;;1.00;99.90;;;;;;4951420;28;20341;-71
2022/01/14 09:16:13;;;;;;;56.42;34.45;;;1.10;99.90;;;;;;4954380;29;20779;-71
2022/01/14 09:19:00;;;;;;;52.42;33.92;;;1.10;99.90;;;;;;4951979;29;20212;-71
2022/01/14 09:21:46;;;;;;;53.08;34.38;;;1.20;99.90;;;;;;4945302;28;20205;-71
2022/01/14 09:24:31;;;;;;;44.60;28.90;;;1.20;99.90;;;;;;4953102;29;20706;-71
2022/01/14 09:27:17;;;;;;;54.55;32.72;;;1.20;99.90;;;;;;4949731;29;20283;-69
2022/01/14 09:30:05;;;;;;;50.83;32.35;;;1.30;99.90;;;;;;4953096;29;20216;-70
2022/01/14 09:32:51;;;;;;;51.78;32.45;;;1.20;99.90;;;;;;4949494;28;20769;-70
2022/01/14 09:35:40;;;;;;;50.95;33.05;;;1.20;99.90;;;;;;4946956;29;20205;-69
2022/01/14 09:38:25;;;;;;;49.50;31.27;;;1.30;99.90;;;;;;4952902;28;20236;-69
2022/01/14 09:41:14;;;;;;;53.88;31.00;;;1.40;99.90;;;;;;4952082;29;20288;-69
2022/01/14 09:44:01;;;;;;;50.55;30.70;;;1.40;99.90;;;;;;4934967;29;20743;-69
2022/01/14 09:46:49;;;;;;;50.80;32.15;;;1.40;99.90;;;;;;4936963;29;20228;-69
2022/01/14 09:49:34;;;;;;;45.50;32.03;;;1.40;99.90;;;;;;4946444;29;20483;-70
2022/01/14 09:52:22;;;;;;;48.20;29.92;;;1.30;99.90;;;;;;4946544;29;20200;-69
2022/01/14 09:55:08;;;;;;;46.80;29.63;;;1.30;99.90;;;;;;4952354;28;20212;-69
2022/01/14 09:57:54;;;;;;;51.95;29.85;;;1.40;99.90;;;;;;4949775;28;20208;-70
2022/01/14 10:00:40;;;;;;;45.70;28.77;;;1.40;99.90;;;;;;4949421;28;20252;-70
2022/01/14 10:03:27;;;;;;;42.70;28.73;;;1.50;99.90;;;;;;4948713;28;20316;-69
2022/01/14 10:06:12;;;;;;;42.30;27.90;;;1.60;99.90;;;;;;4951953;29;20236;-69
2022/01/14 10:09:08;;;;;;;42.85;26.40;;;1.80;99.90;;;;;;4952250;29;20355;-70
2022/01/14 10:12:03;;;;;;;45.30;26.38;;;1.90;99.90;;;;;;4948671;29;20208;-69
2022/01/14 10:14:55;;;;;;;39.28;27.52;;;2.10;99.90;;;;;;4950587;29;20215;-69
2022/01/14 10:17:43;;;;;;;43.10;26.85;;;2.20;99.90;;;;;;4947803;28;20725;-70
2022/01/14 10:20:37;;;;;;;41.53;26.08;;;2.30;99.90;;;;;;4945621;28;20204;-70
2022/01/14 10:23:41;;;;;;;41.17;25.10;;;2.40;99.90;;;;;;4946530;28;20351;-70
2022/01/14 10:26:46;;;;;;;38.72;24.85;;;2.50;99.90;;;;;;4949218;28;20216;-70
2022/01/14 10:29:34;;;;;;;38.20;23.58;;;2.60;99.90;;;;;;4950908;28;20686;-70
2022/01/14 10:32:19;;;;;;;43.45;27.00;;;2.80;99.90;;;;;;4951269;28;20212;-69
2022/01/14 10:35:06;;;;;;;47.90;28.80;;;3.10;99.90;;;;;;4954135;28;20204;-70
2022/01/14 10:37:55;;;;;;;41.70;25.88;;;3.40;99.90;;;;;;4955031;28;20200;-71
2022/01/14 10:40:44;;;;;;;35.28;23.60;;;3.80;99.90;;;;;;4950821;28;20263;-70
2022/01/14 10:43:35;;;;;;;38.78;23.17;;;4.10;99.90;;;;;;4950574;28;20235;-70
2022/01/14 10:46:29;;;;;;;33.65;23.92;;;4.40;99.90;;;;;;4956229;28;20199;-70
2022/01/14 10:49:32;;;;;;;33.22;23.25;;;4.70;99.90;;;;;;4956035;28;20200;-70
2022/01/14 10:52:19;;;;;;;38.90;23.35;;;4.90;99.90;;;;;;4954127;28;20208;-70
2022/01/14 10:55:05;;;;;;;35.97;22.75;;;5.00;99.90;;;;;;4955432;28;20627;-70
2022/01/14 10:57:51;;;;;;;36.85;24.00;;;5.20;99.90;;;;;;4956179;28;20340;-70
2022/01/14 11:00:43;;;;;;;33.22;22.45;;;5.50;99.90;;;;;;4953174;28;20212;-70
2022/01/14 11:03:37;;;;;;;39.55;24.25;;;5.80;99.90;;;;;;4955555;28;20247;-70
2022/01/14 11:06:25;;;;;;;33.35;22.58;;;6.10;99.90;;;;;;4950065;28;20260;-70
2022/01/14 11:09:13;;;;;;;33.75;23.17;;;6.30;99.90;;;;;;4955802;29;20208;-70
2022/01/14 11:11:59;;;;;;;31.70;21.65;;;6.30;99.90;;;;;;4954152;29;20216;-70
2022/01/14 11:14:45;;;;;;;31.85;20.83;;;6.30;99.90;;;;;;4955471;28;20227;-70
2022/01/14 11:17:32;;;;;;;32.15;21.23;;;6.20;99.90;;;;;;4950411;29;20200;-71
2022/01/14 11:20:24;;;;;;;32.90;21.40;;;5.80;99.90;;;;;;4953089;28;20203;-71
2022/01/14 11:23:14;;;;;;;31.35;20.63;;;5.70;99.90;;;;;;4955464;28;20260;-71
2022/01/14 11:26:04;;;;;;;32.47;22.00;;;5.50;99.90;;;;;;4956417;29;20208;-71
2022/01/14 11:28:50;;;;;;;33.88;22.15;;;5.60;99.90;;;;;;4955164;28;20220;-70
2022/01/14 11:31:37;;;;;;;38.85;23.27;;;5.60;99.90;;;;;;4954222;29;20208;-70
2022/01/14 11:34:36;;;;;;;37.22;22.52;;;5.60;99.90;;;;;;4954073;28;20223;-70
2022/01/14 11:37:36;;;;;;;34.83;23.15;;;5.50;99.90;;;;;;4952502;28;20212;-70
2022/01/14 11:40:22;;;;;;;37.45;22.25;;;5.40;99.90;;;;;;4945664;28;20332;-70
2022/01/14 11:43:08;;;;;;;37.53;24.63;;;5.30;99.90;;;;;;4955920;28;20692;-70
2022/01/14 11:45:54;;;;;;;37.00;23.95;;;5.10;99.90;;;;;;4954740;28;20306;-70
2022/01/14 11:48:46;;;;;;;33.58;24.10;;;5.00;99.90;;;;;;4952336;28;20215;-70
2022/01/14 11:51:53;;;;;;;35.67;23.10;;;4.90;99.90;;;;;;4953225;28;20199;-71
2022/01/14 11:54:41;;;;;;;33.45;21.60;;;4.80;99.90;;;;;;4950886;28;20728;-71
2022/01/14 11:57:45;;;;;;;34.03;24.48;;;4.70;99.90;;;;;;4954825;28;20251;-70
2022/01/14 12:00:37;;;;;;;35.20;25.60;;;4.60;99.90;;;;;;4948160;28;20255;-70
2022/01/14 12:03:29;;;;;;;37.42;24.98;;;4.60;99.90;;;;;;4947382;28;20265;-70
2022/01/14 12:06:15;;;;;;;38.90;24.90;;;4.60;99.90;;;;;;4956018;29;20207;-71
2022/01/14 12:09:04;;;;;;;40.45;25.75;;;4.60;99.90;;;;;;4950245;28;20219;-70
2022/01/14 12:12:24;;;;;;;39.65;25.63;;;4.70;99.90;;;;;;4955132;29;20335;-70
2022/01/14 12:15:46;;;;;;;46.17;25.58;;;4.80;99.90;;;;;;4954207;28;20207;-70
2022/01/14 12:19:12;;;;;;;34.33;23.02;;;4.80;99.90;;;;;;4944003;28;20332;-70
2022/01/14 12:21:59;;;;;;;38.67;25.10;;;4.90;99.90;;;;;;4951902;28;20203;-71
2022/01/14 12:24:54;;;;;;;44.58;25.80;;;5.10;99.90;;;;;;4953156;28;20314;-71
2022/01/14 12:27:45;;;;;;;42.95;25.02;;;5.20;99.90;;;;;;4953824;28;20790;-71
2022/01/14 12:30:30;;;;;;;36.20;24.58;;;5.40;99.90;;;;;;4948461;28;20204;-71
2022/01/14 12:33:40;;;;;;;38.60;25.27;;;5.50;99.90;;;;;;4954472;28;20299;-71
2022/01/14 12:36:25;;;;;;;42.03;24.88;;;5.70;99.90;;;;;;4952548;28;20559;-71
2022/01/14 12:39:11;;;;;;;36.67;23.67;;;6.10;99.90;;;;;;4951148;28;20332;-71
2022/01/14 12:42:00;;;;;;;33.03;23.13;;;6.50;99.90;;;;;;4955014;29;20248;-71
2022/01/14 12:44:47;;;;;;;33.72;22.40;;;6.90;99.90;;;;;;4953996;28;20235;-71
2022/01/14 12:47:37;;;;;;;33.70;21.90;;;7.20;99.90;;;;;;4942678;28;20299;-71
2022/01/14 12:50:29;;;;;;;33.15;22.30;;;7.60;99.90;;;;;;4949985;28;20293;-71
2022/01/14 12:53:19;;;;;;;34.25;21.92;;;8.00;99.90;;;;;;4952035;28;20228;-71
2022/01/14 12:56:16;;;;;;;37.08;21.10;;;8.30;99.90;;;;;;4951514;28;20207;-70
2022/01/14 12:59:06;;;;;;;40.03;23.02;;;8.70;99.90;;;;;;4948836;29;20243;-69
2022/01/14 13:01:54;;;;;;;27.53;19.97;;;8.90;99.90;;;;;;4951440;28;20200;-70
2022/01/14 13:04:39;;;;;;;29.93;21.43;;;9.20;99.90;;;;;;4950487;29;20450;-70
2022/01/14 13:07:25;;;;;;;43.00;25.73;;;9.40;99.90;;;;;;4949285;28;20966;-70
2022/01/14 13:10:12;;;;;;;42.00;23.73;;;9.30;99.90;;;;;;4948682;28;20559;-70
2022/01/14 13:12:58;;;;;;;39.47;27.10;;;9.40;99.90;;;;;;4944493;29;20228;-70
2022/01/14 13:15:45;;;;;;;42.83;28.13;;;9.70;99.90;;;;;;4952470;28;20208;-70
2022/01/14 13:18:37;;;;;;;47.70;26.43;;;10.00;99.20;;;;;;4948277;29;20447;-71
2022/01/14 13:21:23;;;;;;;46.53;30.03;;;10.40;94.60;;;;;;4950908;28;20456;-70
2022/01/14 13:24:19;;;;;;;43.03;27.67;;;11.20;89.20;;;;;;4952494;28;20947;-70
2022/01/14 13:27:08;;;;;;;43.97;27.77;;;12.20;72.10;;;;;;4953284;29;20424;-71
2022/01/14 13:29:55;;;;;;;44.80;28.60;;;12.90;62.20;;;;;;4948546;29;20603;-71
2022/01/14 13:32:44;;;;;;;35.03;24.30;;;12.30;61.10;;;;;;4952229;28;20450;-70
2022/01/14 13:35:33;;;;;;;41.00;24.80;;;10.70;62.30;;;;;;4947746;28;20542;-71
2022/01/14 13:38:21;;;;;;;37.87;24.50;;;9.80;71.00;;;;;;4949659;29;20526;-70
2022/01/14 13:41:08;;;;;;;39.10;23.70;;;10.30;66.70;;;;;;4952059;29;20475;-71
2022/01/14 13:44:00;;;;;;;45.40;27.13;;;11.30;62.80;;;;;;4951565;28;20450;-71
2022/01/14 13:46:47;;;;;;;42.13;26.40;;;12.30;55.00;;;;;;4948666;29;20465;-70
2022/01/14 13:49:34;;;;;;;40.40;25.07;;;12.20;53.30;;;;;;4951232;29;20791;-70
2022/01/14 13:52:20;;;;;;;41.27;26.37;;;11.10;56.30;;;;;;4949222;28;20468;-71
2022/01/14 13:55:06;;;;;;;40.43;25.87;;;9.60;64.80;;;;;;4951374;29;20419;-70
2022/01/14 13:58:06;;;;;;;44.67;28.73;;;8.40;82.00;;;;;;4949169;29;20477;-72
2022/01/14 14:00:54;;;;;;;46.33;28.93;;;7.50;95.00;;;;;;4949492;29;20419;-71
2022/01/14 14:03:47;;;;;;;49.77;29.50;;;6.90;99.90;;;;;;4952020;28;20484;-72
2022/01/14 14:06:40;;;;;;;52.63;29.77;;;6.30;99.90;;;;;;4952918;28;20505;-71
2022/01/14 14:09:30;;;;;;;46.37;28.47;;;5.70;99.90;;;;;;4941208;29;20534;-71
2022/01/14 14:15:44;;;;;;;49.72;28.08;;;5.00;99.90;;;;;;4947954;29;20280;-72
2022/01/14 14:18:40;;;;;;;48.97;27.55;;;4.80;99.90;;;;;;4947365;29;20310;-71
2022/01/14 14:21:28;;;;;;;49.03;28.08;;;4.70;99.90;;;;;;4951569;29;20293;-70
2022/01/14 14:24:16;;;;;;;52.00;27.83;;;4.70;99.90;;;;;;4952914;28;20275;-70
2022/01/14 14:27:13;;;;;;;56.83;33.75;;;4.50;99.90;;;;;;4952252;29;20208;-71
2022/01/14 14:30:01;;;;;;;73.00;38.72;;;4.60;99.90;;;;;;4943308;29;20211;-70
2022/01/14 14:32:47;;;;;;;62.95;35.38;;;4.60;99.90;;;;;;4950485;29;20308;-70
2022/01/14 14:35:35;;;;;;;68.28;35.55;;;4.40;99.90;;;;;;4952273;29;20204;-71